sensor_id;sensor_type;location;lat;lon;timestamp;temperature;humidity
4828;DHT22;2428;48.732;9.148;2023-09-08T00:00:49;17.70;99.90
4828;DHT22;2428;48.732;9.148;2023-09-08T00:03:14;17.70;99.90
4828;DHT22;2428;48.732;9.148;2023-09-08T00:05:41;17.70;99.90
4828;DHT22;2428;48.732;9.148;2023-09-08T00:08:06;17.70;99.90
4828;DHT22;2428;48.732;9.148;2023-09-08T00:10:32;17.70;99.90
4828;DHT22;2428;48.732;9.148;2023-09-08T00:12:57;17.70;99.90
4828;DHT22;2428;48.732;9.148;2023-09-08T00:15:23;17.70;99.90
4828;DHT22;2428;48.732;9.148;2023-09-08T00:17:48;17.60;99.90
4828;DHT22;2428;48.732;9.148;2023-09-08T00:20:14;17.60;99.90
4828;DHT22;2428;48.732;9.148;2023-09-08T00:22:40;17.60;99.90
4828;DHT22;2428;48.732;9.148;2023-09-08T00:25:06;17.60;99.90
4828;DHT22;2428;48.732;9.148;2023-09-08T00:27:32;17.50;99.90
4828;DHT22;2428;48.732;9.148;2023-09-08T00:29:58;17.50;99.90
4828;DHT22;2428;48.732;9.148;2023-09-08T00:32:23;17.50;99.90
4828;DHT22;2428;48.732;9.148;2023-09-08T00:34:49;17.50;99.90
4828;DHT22;2428;48.732;9.148;2023-09-08T00:37:15;17.50;99.90
4828;DHT22;2428;48.732;9.148;2023-09-08T00:39:40;17.40;99.90
4828;DHT22;2428;48.732;9.148;2023-09-08T00:42:06;17.40;99.90
4828;DHT22;2428;48.732;9.148;2023-09-08T00:44:32;17.40;99.90
4828;DHT22;2428;48.732;9.148;2023-09-08T00:46:58;17.40;99.90
4828;DHT22;2428;48.732;9.148;2023-09-08T00:49:24;17.40;99.90
4828;DHT22;2428;48.732;9.148;2023-09-08T00:51:50;17.40;99.90
4828;DHT22;2428;48.732;9.148;2023-09-08T00:54:16;17.40;99.90
4828;DHT22;2428;48.732;9.148;2023-09-08T00:56:43;17.40;99.90
4828;DHT22;2428;48.732;9.148;2023-09-08T00:59:09;17.40;99.90
4828;DHT22;2428;48.732;9.148;2023-09-08T01:01:35;17.30;99.90
4828;DHT22;2428;48.732;9.148;2023-09-08T01:04:01;17.30;99.90
4828;DHT22;2428;48.732;9.148;2023-09-08T01:06:27;17.30;99.90
4828;DHT22;2428;48.732;9.148;2023-09-08T01:08:54;17.30;99.90
4828;DHT22;2428;48.732;9.148;2023-09-08T01:11:21;17.30;99.90
4828;DHT22;2428;48.732;9.148;2023-09-08T01:13:47;17.20;99.90
4828;DHT22;2428;48.732;9.148;2023-09-08T01:16:13;17.20;99.90
4828;DHT22;2428;48.732;9.148;2023-09-08T01:18:38;17.20;99.90
4828;DHT22;2428;48.732;9.148;2023-09-08T01:26:41;17.10;99.90
4828;DHT22;2428;48.732;9.148;2023-09-08T01:29:09;17.10;99.90
4828;DHT22;2428;48.732;9.148;2023-09-08T01:31:36;17.10;99.90
4828;DHT22;2428;48.732;9.148;2023-09-08T01:34:03;17.10;99.90
4828;DHT22;2428;48.732;9.148;2023-09-08T01:36:35;17.10;99.90
4828;DHT22;2428;48.732;9.148;2023-09-08T01:39:01;17.10;99.90
4828;DHT22;2428;48.732;9.148;2023-09-08T01:41:27;17.10;99.90
4828;DHT22;2428;48.732;9.148;2023-09-08T01:43:53;17.00;99.90
4828;DHT22;2428;48.732;9.148;2023-09-08T01:46:20;17.00;99.90
4828;DHT22;2428;48.732;9.148;2023-09-08T01:48:45;17.00;99.90
4828;DHT22;2428;48.732;9.148;2023-09-08T01:51:11;16.90;99.90
4828;DHT22;2428;48.732;9.148;2023-09-08T01:53:36;16.90;99.90
4828;DHT22;2428;48.732;9.148;2023-09-08T01:56:02;16.80;99.90
4828;DHT22;2428;48.732;9.148;2023-09-08T01:58:27;16.80;99.90
4828;DHT22;2428;48.732;9.148;2023-09-08T02:00:53;16.70;99.90
4828;DHT22;2428;48.732;9.148;2023-09-08T02:03:19;16.70;99.90
4828;DHT22;2428;48.732;9.148;2023-09-08T02:05:45;16.70;99.90
4828;DHT22;2428;48.732;9.148;2023-09-08T02:08:11;16.60;99.90
4828;DHT22;2428;48.732;9.148;2023-09-08T02:10:39;16.60;99.90
4828;DHT22;2428;48.732;9.148;2023-09-08T02:13:05;16.60;99.90
4828;DHT22;2428;48.732;9.148;2023-09-08T02:15:30;16.50;99.90
4828;DHT22;2428;48.732;9.148;2023-09-08T02:17:56;16.50;99.90
4828;DHT22;2428;48.732;9.148;2023-09-08T02:20:22;16.50;99.90
4828;DHT22;2428;48.732;9.148;2023-09-08T02:22:53;16.40;99.90
4828;DHT22;2428;48.732;9.148;2023-09-08T02:25:19;16.40;99.90
4828;DHT22;2428;48.732;9.148;2023-09-08T02:27:44;16.40;99.90
4828;DHT22;2428;48.732;9.148;2023-09-08T02:30:10;16.40;99.90
4828;DHT22;2428;48.732;9.148;2023-09-08T02:32:35;16.30;99.90
4828;DHT22;2428;48.732;9.148;2023-09-08T02:35:01;16.30;99.90
4828;DHT22;2428;48.732;9.148;2023-09-08T02:37:26;16.30;99.90
4828;DHT22;2428;48.732;9.148;2023-09-08T02:39:52;16.30;99.90
4828;DHT22;2428;48.732;9.148;2023-09-08T02:42:18;16.30;99.90
4828;DHT22;2428;48.732;9.148;2023-09-08T02:44:43;16.30;99.90
4828;DHT22;2428;48.732;9.148;2023-09-08T02:47:09;16.30;99.90
4828;DHT22;2428;48.732;9.148;2023-09-08T02:49:35;16.30;99.90
4828;DHT22;2428;48.732;9.148;2023-09-08T02:52:01;16.30;99.90
4828;DHT22;2428;48.732;9.148;2023-09-08T02:54:26;16.30;99.90
4828;DHT22;2428;48.732;9.148;2023-09-08T02:56:52;16.40;99.90
4828;DHT22;2428;48.732;9.148;2023-09-08T02:59:18;16.40;99.90
4828;DHT22;2428;48.732;9.148;2023-09-08T03:01:43;16.40;99.90
4828;DHT22;2428;48.732;9.148;2023-09-08T03:04:09;16.50;99.90
4828;DHT22;2428;48.732;9.148;2023-09-08T03:06:35;16.50;99.90
4828;DHT22;2428;48.732;9.148;2023-09-08T03:09:00;16.50;99.90
4828;DHT22;2428;48.732;9.148;2023-09-08T03:11:26;16.40;99.90
4828;DHT22;2428;48.732;9.148;2023-09-08T03:13:51;16.50;99.90
4828;DHT22;2428;48.732;9.148;2023-09-08T03:16:17;16.50;99.90
4828;DHT22;2428;48.732;9.148;2023-09-08T03:18:42;16.50;99.90
4828;DHT22;2428;48.732;9.148;2023-09-08T03:21:08;16.40;99.90
4828;DHT22;2428;48.732;9.148;2023-09-08T03:23:41;16.40;99.90
4828;DHT22;2428;48.732;9.148;2023-09-08T03:26:07;16.40;99.90
4828;DHT22;2428;48.732;9.148;2023-09-08T03:28:34;16.30;99.90
4828;DHT22;2428;48.732;9.148;2023-09-08T03:31:01;16.30;99.90
4828;DHT22;2428;48.732;9.148;2023-09-08T03:33:26;16.20;99.90
4828;DHT22;2428;48.732;9.148;2023-09-08T03:35:52;16.20;99.90
4828;DHT22;2428;48.732;9.148;2023-09-08T03:38:17;16.10;99.90
4828;DHT22;2428;48.732;9.148;2023-09-08T03:40:43;16.10;99.90
4828;DHT22;2428;48.732;9.148;2023-09-08T03:43:09;16.10;99.90
4828;DHT22;2428;48.732;9.148;2023-09-08T03:45:34;16.10;99.90
4828;DHT22;2428;48.732;9.148;2023-09-08T03:48:00;16.10;99.90
4828;DHT22;2428;48.732;9.148;2023-09-08T03:50:26;16.10;99.90
4828;DHT22;2428;48.732;9.148;2023-09-08T03:52:51;16.10;99.90
4828;DHT22;2428;48.732;9.148;2023-09-08T03:55:19;16.10;99.90
4828;DHT22;2428;48.732;9.148;2023-09-08T03:57:44;16.00;99.90
4828;DHT22;2428;48.732;9.148;2023-09-08T04:00:10;16.00;99.90
4828;DHT22;2428;48.732;9.148;2023-09-08T04:02:36;16.00;99.90
4828;DHT22;2428;48.732;9.148;2023-09-08T04:05:02;15.90;99.90
4828;DHT22;2428;48.732;9.148;2023-09-08T04:07:28;15.90;99.90
4828;DHT22;2428;48.732;9.148;2023-09-08T04:09:53;15.90;99.90
4828;DHT22;2428;48.732;9.148;2023-09-08T04:12:19;15.80;99.90
4828;DHT22;2428;48.732;9.148;2023-09-08T04:14:44;15.80;99.90
4828;DHT22;2428;48.732;9.148;2023-09-08T04:17:10;15.80;99.90
4828;DHT22;2428;48.732;9.148;2023-09-08T04:19:36;15.80;99.90
4828;DHT22;2428;48.732;9.148;2023-09-08T04:22:01;15.70;99.90
4828;DHT22;2428;48.732;9.148;2023-09-08T04:24:27;15.70;99.90
4828;DHT22;2428;48.732;9.148;2023-09-08T04:26:52;15.70;99.90
4828;DHT22;2428;48.732;9.148;2023-09-08T04:29:18;15.70;99.90
4828;DHT22;2428;48.732;9.148;2023-09-08T04:31:44;15.70;99.90
4828;DHT22;2428;48.732;9.148;2023-09-08T04:34:10;15.70;99.90
4828;DHT22;2428;48.732;9.148;2023-09-08T04:36:35;15.70;99.90
4828;DHT22;2428;48.732;9.148;2023-09-08T04:39:01;15.70;99.90
4828;DHT22;2428;48.732;9.148;2023-09-08T04:41:26;15.70;99.90
4828;DHT22;2428;48.732;9.148;2023-09-08T04:43:52;15.70;99.90
4828;DHT22;2428;48.732;9.148;2023-09-08T04:46:18;15.70;99.90
4828;DHT22;2428;48.732;9.148;2023-09-08T04:48:43;15.70;99.90
4828;DHT22;2428;48.732;9.148;2023-09-08T04:51:09;15.70;99.90
4828;DHT22;2428;48.732;9.148;2023-09-08T04:53:34;15.70;99.90
4828;DHT22;2428;48.732;9.148;2023-09-08T04:56:01;15.70;99.90
4828;DHT22;2428;48.732;9.148;2023-09-08T04:58:27;15.70;99.90
4828;DHT22;2428;48.732;9.148;2023-09-08T05:00:53;15.70;99.90
4828;DHT22;2428;48.732;9.148;2023-09-08T05:03:18;15.70;99.90
4828;DHT22;2428;48.732;9.148;2023-09-08T05:05:44;15.70;99.90
4828;DHT22;2428;48.732;9.148;2023-09-08T05:08:10;15.70;99.90
4828;DHT22;2428;48.732;9.148;2023-09-08T05:10:36;15.70;99.90
4828;DHT22;2428;48.732;9.148;2023-09-08T05:13:01;15.70;99.90
4828;DHT22;2428;48.732;9.148;2023-09-08T05:15:27;15.70;99.90
4828;DHT22;2428;48.732;9.148;2023-09-08T05:17:52;15.70;99.90
4828;DHT22;2428;48.732;9.148;2023-09-08T05:20:18;15.70;99.90
4828;DHT22;2428;48.732;9.148;2023-09-08T05:22:43;15.70;99.90
4828;DHT22;2428;48.732;9.148;2023-09-08T05:25:09;15.70;99.90
4828;DHT22;2428;48.732;9.148;2023-09-08T05:27:35;15.70;99.90
4828;DHT22;2428;48.732;9.148;2023-09-08T05:30:01;15.70;99.90
4828;DHT22;2428;48.732;9.148;2023-09-08T05:32:27;15.70;99.90
4828;DHT22;2428;48.732;9.148;2023-09-08T05:34:52;15.70;99.90
4828;DHT22;2428;48.732;9.148;2023-09-08T05:37:18;15.80;99.90
4828;DHT22;2428;48.732;9.148;2023-09-08T05:39:43;15.80;99.90
4828;DHT22;2428;48.732;9.148;2023-09-08T05:42:09;15.80;99.90
4828;DHT22;2428;48.732;9.148;2023-09-08T05:44:34;15.80;99.90
4828;DHT22;2428;48.732;9.148;2023-09-08T05:47:00;15.80;99.90
4828;DHT22;2428;48.732;9.148;2023-09-08T05:49:26;15.90;99.90
4828;DHT22;2428;48.732;9.148;2023-09-08T05:51:52;15.90;99.90
4828;DHT22;2428;48.732;9.148;2023-09-08T05:54:17;15.90;99.90
4828;DHT22;2428;48.732;9.148;2023-09-08T05:56:43;15.90;99.90
4828;DHT22;2428;48.732;9.148;2023-09-08T05:59:09;16.00;99.90
4828;DHT22;2428;48.732;9.148;2023-09-08T06:01:36;16.00;99.90
4828;DHT22;2428;48.732;9.148;2023-09-08T06:04:02;16.10;99.90
4828;DHT22;2428;48.732;9.148;2023-09-08T06:06:28;16.10;99.90
4828;DHT22;2428;48.732;9.148;2023-09-08T06:08:54;16.10;99.90
4828;DHT22;2428;48.732;9.148;2023-09-08T06:11:20;16.20;99.90
4828;DHT22;2428;48.732;9.148;2023-09-08T06:13:45;16.20;99.90
4828;DHT22;2428;48.732;9.148;2023-09-08T06:16:11;16.30;99.90
4828;DHT22;2428;48.732;9.148;2023-09-08T06:18:36;16.30;99.90
4828;DHT22;2428;48.732;9.148;2023-09-08T06:21:08;16.30;99.90
4828;DHT22;2428;48.732;9.148;2023-09-08T06:23:37;16.40;99.90
4828;DHT22;2428;48.732;9.148;2023-09-08T06:26:02;16.40;99.90
4828;DHT22;2428;48.732;9.148;2023-09-08T06:28:28;16.50;99.90
4828;DHT22;2428;48.732;9.148;2023-09-08T06:30:54;16.60;99.90
4828;DHT22;2428;48.732;9.148;2023-09-08T06:33:20;16.70;99.90
4828;DHT22;2428;48.732;9.148;2023-09-08T06:35:46;16.70;99.90
4828;DHT22;2428;48.732;9.148;2023-09-08T06:38:12;16.80;99.90
4828;DHT22;2428;48.732;9.148;2023-09-08T06:40:38;16.80;99.90
4828;DHT22;2428;48.732;9.148;2023-09-08T06:43:03;16.90;99.90
4828;DHT22;2428;48.732;9.148;2023-09-08T06:45:29;17.00;99.90
4828;DHT22;2428;48.732;9.148;2023-09-08T06:47:54;17.10;99.90
4828;DHT22;2428;48.732;9.148;2023-09-08T06:50:23;17.20;99.90
4828;DHT22;2428;48.732;9.148;2023-09-08T06:52:50;17.20;99.90
4828;DHT22;2428;48.732;9.148;2023-09-08T06:55:16;17.40;99.90
4828;DHT22;2428;48.732;9.148;2023-09-08T06:57:42;17.50;99.90
4828;DHT22;2428;48.732;9.148;2023-09-08T07:00:08;17.60;99.90
4828;DHT22;2428;48.732;9.148;2023-09-08T07:02:37;17.60;99.90
4828;DHT22;2428;48.732;9.148;2023-09-08T07:05:02;17.70;99.90
4828;DHT22;2428;48.732;9.148;2023-09-08T07:07:36;17.90;99.90
4828;DHT22;2428;48.732;9.148;2023-09-08T07:10:03;18.00;99.90
4828;DHT22;2428;48.732;9.148;2023-09-08T07:12:29;18.10;99.90
4828;DHT22;2428;48.732;9.148;2023-09-08T07:14:55;18.20;99.90
4828;DHT22;2428;48.732;9.148;2023-09-08T07:17:21;18.30;99.90
4828;DHT22;2428;48.732;9.148;2023-09-08T07:19:49;18.40;99.90
4828;DHT22;2428;48.732;9.148;2023-09-08T07:22:14;18.40;99.90
4828;DHT22;2428;48.732;9.148;2023-09-08T07:24:40;18.50;99.90
4828;DHT22;2428;48.732;9.148;2023-09-08T07:27:05;18.60;99.90
4828;DHT22;2428;48.732;9.148;2023-09-08T07:29:31;18.70;99.90
4828;DHT22;2428;48.732;9.148;2023-09-08T07:31:56;18.70;99.90
4828;DHT22;2428;48.732;9.148;2023-09-08T07:34:22;18.80;99.90
4828;DHT22;2428;48.732;9.148;2023-09-08T07:36:47;18.90;99.90
4828;DHT22;2428;48.732;9.148;2023-09-08T07:39:13;19.00;99.90
4828;DHT22;2428;48.732;9.148;2023-09-08T07:41:38;19.00;99.90
4828;DHT22;2428;48.732;9.148;2023-09-08T07:44:06;19.10;99.90
4828;DHT22;2428;48.732;9.148;2023-09-08T07:46:32;19.20;99.90
4828;DHT22;2428;48.732;9.148;2023-09-08T07:49:01;19.20;99.90
4828;DHT22;2428;48.732;9.148;2023-09-08T07:51:27;19.30;99.90
4828;DHT22;2428;48.732;9.148;2023-09-08T07:53:55;19.30;99.90
4828;DHT22;2428;48.732;9.148;2023-09-08T07:56:21;19.30;99.90
4828;DHT22;2428;48.732;9.148;2023-09-08T07:58:47;19.40;99.90
4828;DHT22;2428;48.732;9.148;2023-09-08T08:01:13;19.50;99.90
4828;DHT22;2428;48.732;9.148;2023-09-08T08:03:39;19.50;99.90
4828;DHT22;2428;48.732;9.148;2023-09-08T08:06:04;19.60;99.90
4828;DHT22;2428;48.732;9.148;2023-09-08T08:08:31;19.70;99.90
4828;DHT22;2428;48.732;9.148;2023-09-08T08:10:57;19.70;99.90
4828;DHT22;2428;48.732;9.148;2023-09-08T08:13:22;19.70;99.90
4828;DHT22;2428;48.732;9.148;2023-09-08T08:15:48;19.80;99.90
4828;DHT22;2428;48.732;9.148;2023-09-08T08:18:15;19.90;99.90
4828;DHT22;2428;48.732;9.148;2023-09-08T08:20:40;20.00;99.90
4828;DHT22;2428;48.732;9.148;2023-09-08T08:23:07;20.00;99.90
4828;DHT22;2428;48.732;9.148;2023-09-08T08:25:33;20.20;99.90
4828;DHT22;2428;48.732;9.148;2023-09-08T08:27:59;20.20;99.90
4828;DHT22;2428;48.732;9.148;2023-09-08T08:30:26;20.40;99.90
4828;DHT22;2428;48.732;9.148;2023-09-08T08:32:52;20.40;99.90
4828;DHT22;2428;48.732;9.148;2023-09-08T08:35:19;20.50;99.90
4828;DHT22;2428;48.732;9.148;2023-09-08T08:37:44;20.60;99.90
4828;DHT22;2428;48.732;9.148;2023-09-08T08:40:11;20.70;99.90
4828;DHT22;2428;48.732;9.148;2023-09-08T08:42:38;20.70;99.90
4828;DHT22;2428;48.732;9.148;2023-09-08T08:45:04;20.80;99.90
4828;DHT22;2428;48.732;9.148;2023-09-08T08:47:30;20.90;99.90
4828;DHT22;2428;48.732;9.148;2023-09-08T08:50:00;21.00;99.90
4828;DHT22;2428;48.732;9.148;2023-09-08T08:52:27;21.10;99.90
4828;DHT22;2428;48.732;9.148;2023-09-08T08:54:53;21.10;99.90
4828;DHT22;2428;48.732;9.148;2023-09-08T08:57:20;21.20;99.90
4828;DHT22;2428;48.732;9.148;2023-09-08T08:59:47;21.30;99.90
4828;DHT22;2428;48.732;9.148;2023-09-08T09:02:14;21.40;99.90
4828;DHT22;2428;48.732;9.148;2023-09-08T09:04:40;21.40;99.90
4828;DHT22;2428;48.732;9.148;2023-09-08T09:07:07;21.50;99.90
4828;DHT22;2428;48.732;9.148;2023-09-08T09:09:33;21.50;99.90
4828;DHT22;2428;48.732;9.148;2023-09-08T09:11:59;21.60;99.90
4828;DHT22;2428;48.732;9.148;2023-09-08T09:14:25;21.60;99.90
4828;DHT22;2428;48.732;9.148;2023-09-08T09:16:50;21.60;99.90
4828;DHT22;2428;48.732;9.148;2023-09-08T09:19:23;21.70;99.90
4828;DHT22;2428;48.732;9.148;2023-09-08T09:21:57;21.70;99.90
4828;DHT22;2428;48.732;9.148;2023-09-08T09:24:37;21.80;99.90
4828;DHT22;2428;48.732;9.148;2023-09-08T09:27:04;22.00;99.90
4828;DHT22;2428;48.732;9.148;2023-09-08T09:29:31;22.10;99.90
4828;DHT22;2428;48.732;9.148;2023-09-08T09:32:07;22.10;99.90
4828;DHT22;2428;48.732;9.148;2023-09-08T09:34:35;22.20;99.90
4828;DHT22;2428;48.732;9.148;2023-09-08T09:37:00;22.20;99.90
4828;DHT22;2428;48.732;9.148;2023-09-08T09:39:26;22.30;99.90
4828;DHT22;2428;48.732;9.148;2023-09-08T09:41:56;22.40;99.90
4828;DHT22;2428;48.732;9.148;2023-09-08T09:44:23;22.50;99.90
4828;DHT22;2428;48.732;9.148;2023-09-08T09:46:52;22.50;99.90
4828;DHT22;2428;48.732;9.148;2023-09-08T09:49:17;22.60;99.90
4828;DHT22;2428;48.732;9.148;2023-09-08T09:51:45;22.70;99.90
4828;DHT22;2428;48.732;9.148;2023-09-08T09:54:12;22.90;99.90
4828;DHT22;2428;48.732;9.148;2023-09-08T09:56:39;23.00;99.90
4828;DHT22;2428;48.732;9.148;2023-09-08T09:59:10;23.10;99.90
4828;DHT22;2428;48.732;9.148;2023-09-08T10:01:37;23.10;99.90
4828;DHT22;2428;48.732;9.148;2023-09-08T10:04:06;23.30;99.90
4828;DHT22;2428;48.732;9.148;2023-09-08T10:06:33;23.60;99.90
4828;DHT22;2428;48.732;9.148;2023-09-08T10:09:00;23.70;99.90
4828;DHT22;2428;48.732;9.148;2023-09-08T10:11:29;24.00;99.90
4828;DHT22;2428;48.732;9.148;2023-09-08T10:13:58;24.90;99.90
4828;DHT22;2428;48.732;9.148;2023-09-08T10:16:27;25.40;99.90
4828;DHT22;2428;48.732;9.148;2023-09-08T10:18:58;25.80;99.90
4828;DHT22;2428;48.732;9.148;2023-09-08T10:21:26;26.20;99.90
4828;DHT22;2428;48.732;9.148;2023-09-08T10:23:59;27.10;99.90
4828;DHT22;2428;48.732;9.148;2023-09-08T10:26:27;29.00;99.90
4828;DHT22;2428;48.732;9.148;2023-09-08T10:28:55;31.50;99.90
4828;DHT22;2428;48.732;9.148;2023-09-08T10:31:26;33.90;99.90
4828;DHT22;2428;48.732;9.148;2023-09-08T10:33:55;36.00;99.90
4828;DHT22;2428;48.732;9.148;2023-09-08T10:36:23;37.80;99.90
4828;DHT22;2428;48.732;9.148;2023-09-08T10:38:49;38.80;95.80
4828;DHT22;2428;48.732;9.148;2023-09-08T10:43:43;39.40;87.90
4828;DHT22;2428;48.732;9.148;2023-09-08T10:46:10;40.30;85.50
4828;DHT22;2428;48.732;9.148;2023-09-08T10:48:43;40.90;81.80
4828;DHT22;2428;48.732;9.148;2023-09-08T10:51:18;40.90;78.60
4828;DHT22;2428;48.732;9.148;2023-09-08T10:53:47;41.50;77.40
4828;DHT22;2428;48.732;9.148;2023-09-08T10:56:16;42.20;72.50
4828;DHT22;2428;48.732;9.148;2023-09-08T10:58:42;40.70;73.30
4828;DHT22;2428;48.732;9.148;2023-09-08T11:01:21;41.40;70.70
4828;DHT22;2428;48.732;9.148;2023-09-08T11:03:53;42.00;69.40
4828;DHT22;2428;48.732;9.148;2023-09-08T11:06:20;42.40;67.60
4828;DHT22;2428;48.732;9.148;2023-09-08T11:08:50;42.80;67.20
4828;DHT22;2428;48.732;9.148;2023-09-08T11:11:20;43.40;64.00
4828;DHT22;2428;48.732;9.148;2023-09-08T11:13:46;42.90;63.20
4828;DHT22;2428;48.732;9.148;2023-09-08T11:16:13;43.10;63.00
4828;DHT22;2428;48.732;9.148;2023-09-08T11:18:39;43.40;61.30
4828;DHT22;2428;48.732;9.148;2023-09-08T11:21:08;43.40;60.50
4828;DHT22;2428;48.732;9.148;2023-09-08T11:23:34;42.60;61.40
4828;DHT22;2428;48.732;9.148;2023-09-08T11:26:00;42.60;61.90
4828;DHT22;2428;48.732;9.148;2023-09-08T11:28:27;42.10;62.30
4828;DHT22;2428;48.732;9.148;2023-09-08T11:30:54;42.40;60.80
4828;DHT22;2428;48.732;9.148;2023-09-08T11:33:22;41.40;59.60
4828;DHT22;2428;48.732;9.148;2023-09-08T11:35:54;41.00;62.20
4828;DHT22;2428;48.732;9.148;2023-09-08T11:38:27;39.90;63.20
4828;DHT22;2428;48.732;9.148;2023-09-08T11:40:57;39.10;64.80
4828;DHT22;2428;48.732;9.148;2023-09-08T11:43:24;37.80;67.10
4828;DHT22;2428;48.732;9.148;2023-09-08T11:45:50;36.50;69.20
4828;DHT22;2428;48.732;9.148;2023-09-08T11:48:16;34.60;73.00
4828;DHT22;2428;48.732;9.148;2023-09-08T11:50:43;33.30;78.40
4828;DHT22;2428;48.732;9.148;2023-09-08T11:53:09;32.50;80.00
4828;DHT22;2428;48.732;9.148;2023-09-08T11:55:35;31.50;83.00
4828;DHT22;2428;48.732;9.148;2023-09-08T11:58:02;31.00;84.70
4828;DHT22;2428;48.732;9.148;2023-09-08T12:00:28;30.40;88.30
4828;DHT22;2428;48.732;9.148;2023-09-08T12:02:55;30.00;89.30
4828;DHT22;2428;48.732;9.148;2023-09-08T12:05:21;29.40;90.70
4828;DHT22;2428;48.732;9.148;2023-09-08T12:07:54;28.90;92.10
4828;DHT22;2428;48.732;9.148;2023-09-08T12:10:22;28.60;93.60
4828;DHT22;2428;48.732;9.148;2023-09-08T12:12:50;28.50;94.70
4828;DHT22;2428;48.732;9.148;2023-09-08T12:15:30;28.20;94.90
4828;DHT22;2428;48.732;9.148;2023-09-08T12:18:00;28.30;96.40
4828;DHT22;2428;48.732;9.148;2023-09-08T12:20:27;28.00;96.20
4828;DHT22;2428;48.732;9.148;2023-09-08T12:22:53;27.80;97.80
4828;DHT22;2428;48.732;9.148;2023-09-08T12:25:18;27.80;98.90
4828;DHT22;2428;48.732;9.148;2023-09-08T12:27:45;27.70;98.80
4828;DHT22;2428;48.732;9.148;2023-09-08T12:30:22;27.50;99.40
4828;DHT22;2428;48.732;9.148;2023-09-08T12:33:01;27.60;99.10
4828;DHT22;2428;48.732;9.148;2023-09-08T12:35:27;27.60;99.90
4828;DHT22;2428;48.732;9.148;2023-09-08T12:37:58;27.40;99.20
4828;DHT22;2428;48.732;9.148;2023-09-08T12:40:25;27.40;99.90
4828;DHT22;2428;48.732;9.148;2023-09-08T12:42:51;27.40;99.90
4828;DHT22;2428;48.732;9.148;2023-09-08T12:45:18;27.40;99.90
4828;DHT22;2428;48.732;9.148;2023-09-08T12:47:43;27.30;99.90
4828;DHT22;2428;48.732;9.148;2023-09-08T12:50:09;27.30;99.90
4828;DHT22;2428;48.732;9.148;2023-09-08T12:52:35;27.30;99.90
4828;DHT22;2428;48.732;9.148;2023-09-08T12:55:01;27.30;99.90
4828;DHT22;2428;48.732;9.148;2023-09-08T12:57:26;27.20;99.90
4828;DHT22;2428;48.732;9.148;2023-09-08T12:59:52;27.00;99.90
4828;DHT22;2428;48.732;9.148;2023-09-08T13:02:17;27.00;99.90
4828;DHT22;2428;48.732;9.148;2023-09-08T13:04:43;27.10;99.90
4828;DHT22;2428;48.732;9.148;2023-09-08T13:07:14;27.10;99.90
4828;DHT22;2428;48.732;9.148;2023-09-08T13:09:40;27.20;99.90
4828;DHT22;2428;48.732;9.148;2023-09-08T13:12:06;27.20;99.90
4828;DHT22;2428;48.732;9.148;2023-09-08T13:14:31;27.10;99.90
4828;DHT22;2428;48.732;9.148;2023-09-08T13:16:57;27.10;99.90
4828;DHT22;2428;48.732;9.148;2023-09-08T13:19:22;27.10;99.90
4828;DHT22;2428;48.732;9.148;2023-09-08T13:21:48;27.10;99.90
4828;DHT22;2428;48.732;9.148;2023-09-08T13:24:13;27.00;99.90
4828;DHT22;2428;48.732;9.148;2023-09-08T13:26:39;27.00;99.90
4828;DHT22;2428;48.732;9.148;2023-09-08T13:29:04;27.00;99.90
4828;DHT22;2428;48.732;9.148;2023-09-08T13:31:30;26.90;99.90
4828;DHT22;2428;48.732;9.148;2023-09-08T13:33:56;26.90;99.90
4828;DHT22;2428;48.732;9.148;2023-09-08T13:36:21;26.90;99.90
4828;DHT22;2428;48.732;9.148;2023-09-08T13:38:47;26.80;99.90
4828;DHT22;2428;48.732;9.148;2023-09-08T13:41:12;26.80;99.90
4828;DHT22;2428;48.732;9.148;2023-09-08T13:43:38;26.80;99.90
4828;DHT22;2428;48.732;9.148;2023-09-08T13:46:03;26.80;99.90
4828;DHT22;2428;48.732;9.148;2023-09-08T13:48:29;26.80;99.90
4828;DHT22;2428;48.732;9.148;2023-09-08T13:50:55;26.80;99.90
4828;DHT22;2428;48.732;9.148;2023-09-08T13:53:21;26.90;99.90
4828;DHT22;2428;48.732;9.148;2023-09-08T13:55:47;26.90;99.90
4828;DHT22;2428;48.732;9.148;2023-09-08T13:58:13;27.00;99.90
4828;DHT22;2428;48.732;9.148;2023-09-08T14:00:39;27.10;99.90
4828;DHT22;2428;48.732;9.148;2023-09-08T14:03:04;27.10;99.90
4828;DHT22;2428;48.732;9.148;2023-09-08T14:05:31;27.30;99.90
4828;DHT22;2428;48.732;9.148;2023-09-08T14:07:56;27.40;99.90
4828;DHT22;2428;48.732;9.148;2023-09-08T14:10:22;27.50;99.90
4828;DHT22;2428;48.732;9.148;2023-09-08T14:12:47;27.50;99.90
4828;DHT22;2428;48.732;9.148;2023-09-08T14:15:14;27.50;98.30
4828;DHT22;2428;48.732;9.148;2023-09-08T14:17:41;27.40;97.90
4828;DHT22;2428;48.732;9.148;2023-09-08T14:20:09;27.60;99.10
4828;DHT22;2428;48.732;9.148;2023-09-08T14:22:34;27.80;99.70
4828;DHT22;2428;48.732;9.148;2023-09-08T14:25:00;28.00;99.90
4828;DHT22;2428;48.732;9.148;2023-09-08T14:27:25;28.10;98.70
4828;DHT22;2428;48.732;9.148;2023-09-08T14:29:51;28.30;99.90
4828;DHT22;2428;48.732;9.148;2023-09-08T14:32:17;28.30;98.70
4828;DHT22;2428;48.732;9.148;2023-09-08T14:34:43;28.50;98.10
4828;DHT22;2428;48.732;9.148;2023-09-08T14:37:08;28.50;97.70
4828;DHT22;2428;48.732;9.148;2023-09-08T14:39:34;28.60;97.70
4828;DHT22;2428;48.732;9.148;2023-09-08T14:41:59;28.70;97.90
4828;DHT22;2428;48.732;9.148;2023-09-08T14:44:25;28.60;97.20
4828;DHT22;2428;48.732;9.148;2023-09-08T14:46:51;28.60;96.70
4828;DHT22;2428;48.732;9.148;2023-09-08T14:49:17;28.50;96.90
4828;DHT22;2428;48.732;9.148;2023-09-08T14:51:42;28.70;97.20
4828;DHT22;2428;48.732;9.148;2023-09-08T14:54:08;28.70;97.80
4828;DHT22;2428;48.732;9.148;2023-09-08T14:56:34;28.80;97.20
4828;DHT22;2428;48.732;9.148;2023-09-08T14:58:59;28.80;96.10
4828;DHT22;2428;48.732;9.148;2023-09-08T15:01:25;28.90;97.00
4828;DHT22;2428;48.732;9.148;2023-09-08T15:03:51;28.90;96.50
4828;DHT22;2428;48.732;9.148;2023-09-08T15:06:17;28.90;95.50
4828;DHT22;2428;48.732;9.148;2023-09-08T15:08:42;28.80;96.30
4828;DHT22;2428;48.732;9.148;2023-09-08T15:11:09;28.90;96.80
4828;DHT22;2428;48.732;9.148;2023-09-08T15:13:35;29.00;95.70
4828;DHT22;2428;48.732;9.148;2023-09-08T15:16:00;29.00;95.70
4828;DHT22;2428;48.732;9.148;2023-09-08T15:18:26;29.00;96.30
4828;DHT22;2428;48.732;9.148;2023-09-08T15:20:56;29.00;95.80
4828;DHT22;2428;48.732;9.148;2023-09-08T15:23:22;29.00;96.90
4828;DHT22;2428;48.732;9.148;2023-09-08T15:25:52;29.00;97.10
4828;DHT22;2428;48.732;9.148;2023-09-08T15:28:18;28.90;95.30
4828;DHT22;2428;48.732;9.148;2023-09-08T15:30:51;28.90;96.00
4828;DHT22;2428;48.732;9.148;2023-09-08T15:33:18;28.80;96.00
4828;DHT22;2428;48.732;9.148;2023-09-08T15:35:45;28.80;95.50
4828;DHT22;2428;48.732;9.148;2023-09-08T15:38:12;28.80;96.20
4828;DHT22;2428;48.732;9.148;2023-09-08T15:40:38;28.60;95.60
4828;DHT22;2428;48.732;9.148;2023-09-08T15:43:04;28.60;97.50
4828;DHT22;2428;48.732;9.148;2023-09-08T15:45:30;28.50;96.00
4828;DHT22;2428;48.732;9.148;2023-09-08T15:47:55;28.40;96.40
4828;DHT22;2428;48.732;9.148;2023-09-08T15:50:21;28.30;95.80
4828;DHT22;2428;48.732;9.148;2023-09-08T15:52:46;28.30;96.50
4828;DHT22;2428;48.732;9.148;2023-09-08T15:55:12;28.20;95.30
4828;DHT22;2428;48.732;9.148;2023-09-08T15:57:38;28.20;96.50
4828;DHT22;2428;48.732;9.148;2023-09-08T16:00:03;28.10;95.70
4828;DHT22;2428;48.732;9.148;2023-09-08T16:02:29;28.10;96.00
4828;DHT22;2428;48.732;9.148;2023-09-08T16:04:55;28.00;95.60